Time,TemperatureF,DewpointF,PressureIn,WindDirection,WindDirectionDegrees,WindSpeedMPH,WindSpeedGustMPH,Humidity,HourlyPrecipIn,Conditions,Clouds,dailyrainin,SoftwareType,DateUTC
2013-01-16 00:30:00,53.1,50.5,30.03,North,0,0.4,0.4,91,0.00,,,0.00,WUHU216HW,2013-01-16 05:30:00,
2013-01-16 00:35:00,53.1,50.5,30.03,NNE,23,0.9,0.9,91,0.00,,,0.00,WUHU216HW,2013-01-16 05:35:00,
2013-01-16 01:30:00,53.3,50.7,30.02,NNE,23,0.0,0.0,91,0.00,,,0.00,WUHU216HW,2013-01-16 06:30:00,
2013-01-16 01:35:00,53.3,50.7,30.02,NNE,23,0.0,0.0,91,0.00,,,0.00,WUHU216HW,2013-01-16 06:35:00,
2013-01-16 02:00:00,53.6,51.0,30.02,NNE,23,0.2,0.2,91,0.00,,,0.00,WUHU216HW,2013-01-16 07:00:00,
2013-01-16 02:05:00,53.6,51.0,30.02,NNE,23,0.2,0.2,91,0.00,,,0.00,WUHU216HW,2013-01-16 07:05:00,
2013-01-16 02:30:00,53.8,51.2,30.01,NNE,23,0.0,0.0,91,0.00,,,0.00,WUHU216HW,2013-01-16 07:30:00,
2013-01-16 02:35:00,53.8,51.2,30.01,NNE,23,0.0,0.0,91,0.00,,,0.00,WUHU216HW,2013-01-16 07:35:00,
2013-01-16 03:00:00,54.4,51.8,30.01,NNE,23,0.0,0.0,91,0.00,,,0.00,WUHU216HW,2013-01-16 08:00:00,
2013-01-16 03:05:00,54.4,51.8,30.01,NNE,23,0.0,0.0,91,0.00,,,0.00,WUHU216HW,2013-01-16 08:05:00,
2013-01-16 04:00:00,55.1,52.5,29.98,NNE,23,0.0,0.0,91,0.00,,,0.00,WUHU216HW,2013-01-16 09:00:00,
2013-01-16 04:30:00,55.8,53.2,29.97,SSW,203,0.4,0.4,91,0.00,,,0.00,WUHU216HW,2013-01-16 09:30:00,
2013-01-16 04:35:00,55.8,53.2,29.97,SSW,203,0.4,0.4,91,0.00,,,0.00,WUHU216HW,2013-01-16 09:35:00,
2013-01-16 05:00:00,58.1,55.5,29.98,West,270,0.9,0.9,91,0.00,,,0.00,WUHU216HW,2013-01-16 10:00:00,
2013-01-16 05:05:00,58.1,55.5,29.98,West,270,0.9,0.9,91,0.00,,,0.00,WUHU216HW,2013-01-16 10:05:00,
2013-01-16 05:30:00,58.3,55.7,29.97,SW,225,0.2,0.2,91,0.00,,,0.00,WUHU216HW,2013-01-16 10:30:00,
2013-01-16 05:35:00,58.3,55.7,29.97,SW,225,0.2,0.2,91,0.00,,,0.00,WUHU216HW,2013-01-16 10:35:00,
2013-01-16 06:00:00,60.8,58.5,29.96,SW,225,1.1,1.1,92,0.00,,,0.00,WUHU216HW,2013-01-16 11:00:00,
2013-01-16 06:05:00,60.8,58.5,29.96,SW,225,1.1,1.1,92,0.00,,,0.00,WUHU216HW,2013-01-16 11:05:00,
2013-01-16 06:30:00,63.0,60.7,29.97,West,270,2.0,2.0,92,0.00,,,0.00,WUHU216HW,2013-01-16 11:30:00,
2013-01-16 06:35:00,63.0,60.7,29.97,West,270,2.0,2.0,92,0.00,,,0.00,WUHU216HW,2013-01-16 11:35:00,
2013-01-16 07:00:00,63.5,61.2,29.98,SSW,203,3.4,3.4,92,0.00,,,0.00,WUHU216HW,2013-01-16 12:00:00,
2013-01-16 07:05:00,63.5,61.2,29.98,SSW,203,3.4,3.4,92,0.00,,,0.00,WUHU216HW,2013-01-16 12:05:00,
2013-01-16 07:30:00,63.7,61.4,29.98,WSW,248,4.0,4.0,92,0.00,,,0.00,WUHU216HW,2013-01-16 12:30:00,
2013-01-16 07:35:00,63.7,61.4,29.98,WSW,248,4.0,4.0,92,0.00,,,0.00,WUHU216HW,2013-01-16 12:35:00,
2013-01-16 08:00:00,64.4,62.1,29.99,South,180,1.8,1.8,92,0.00,,,0.00,WUHU216HW,2013-01-16 13:00:00,
2013-01-16 11:30:00,74.5,64.5,29.98,WSW,248,4.7,4.7,71,0.00,,,0.00,WUHU216HW,2013-01-16 16:30:00,
2013-01-16 13:30:00,75.6,63.0,29.94,WSW,248,7.6,7.6,65,0.00,,,0.00,WUHU216HW,2013-01-16 18:30:00,
2013-01-16 13:35:00,75.6,63.0,29.94,WSW,248,7.6,7.6,65,0.00,,,0.00,WUHU216HW,2013-01-16 18:35:00,
2013-01-16 15:30:00,67.7,61.0,29.97,WNW,293,1.8,1.8,79,0.00,,,0.00,WUHU216HW,2013-01-16 20:30:00,
2013-01-16 15:35:00,67.7,61.0,29.97,WNW,293,1.8,1.8,79,0.00,,,0.00,WUHU216HW,2013-01-16 20:35:00,
2013-01-16 16:00:00,65.7,60.8,29.96,NNE,23,0.7,0.7,84,0.00,,,0.00,WUHU216HW,2013-01-16 21:00:00,
2013-01-16 16:05:00,65.7,60.8,29.96,NNE,23,0.7,0.7,84,0.00,,,0.00,WUHU216HW,2013-01-16 21:05:00,
2013-01-16 16:30:00,62.3,57.7,29.98,North,0,1.1,1.1,85,0.00,,,0.00,WUHU216HW,2013-01-16 21:30:00,
2013-01-16 16:38:00,62.3,57.7,29.98,North,0,1.1,1.1,85,0.00,,,0.00,WUHU216HW,2013-01-16 21:38:00,
2013-01-16 17:00:00,59.8,55.6,29.98,NNE,23,0.4,0.4,86,0.00,,,0.00,WUHU216HW,2013-01-16 22:00:00,
2013-01-16 17:05:00,59.8,55.6,29.98,NNE,23,0.4,0.4,86,0.00,,,0.00,WUHU216HW,2013-01-16 22:05:00,
2013-01-16 18:00:00,57.4,53.3,29.99,NE,45,0.4,0.4,86,0.00,,,0.00,WUHU216HW,2013-01-16 23:00:00,
2013-01-16 18:05:00,57.4,53.3,29.99,NE,45,0.4,0.4,86,0.00,,,0.00,WUHU216HW,2013-01-16 23:05:00,
2013-01-16 20:38:00,57.2,52.7,29.99,ENE,68,0.4,0.4,85,0.00,,,0.00,WUHU216HW,2013-01-17 01:38:00,
2013-01-16 20:43:00,57.2,52.7,29.99,ENE,68,0.4,0.4,85,0.00,,,0.00,WUHU216HW,2013-01-17 01:43:00,
2013-01-16 21:00:00,54.4,50.6,29.98,East,90,0.2,0.2,87,0.00,,,0.00,WUHU216HW,2013-01-17 02:00:00,
2013-01-16 21:05:00,54.4,50.6,29.98,East,90,0.2,0.2,87,0.00,,,0.00,WUHU216HW,2013-01-17 02:05:00,
2013-01-16 21:10:00,54.4,50.6,29.98,East,90,0.2,0.2,87,0.00,,,0.00,WUHU216HW,2013-01-17 02:10:00,